Saint Michael, Pennsylvania
Current Conditions -  °F | °C
As of 6:13 PM on Thursday 27 Nov 2014 (Local Time) from KJST Reporting Station
Light Snow Light Snow  
Wind Chill: 14°   Ceiling: 600
Heat Index: 27°   Visibility: 2.5mi
Dew Point: 24°   Wind: 18mph
Humidity: 89%   Direction: 300°WNW
Pressure: 30.04"   Gusts: 26mph
Location:  40.34°N, 78.77°W
Report Text: KJST 272313Z AUTO 30016G23KT 2 1/2SM -SN BR OVC006 M03/M04 A3004 RMK AO2 P0000 T10281044
Loading
Personal Weather Stations






























Interactive Weather Map New forecast layout! Learn more

10-Day Weather Forecast

Advertisements
Track Severe Weather on mobile